Time;durP1;ratioP1;P1;durP2;ratioP2;P2;SDS_P1;SDS_P2;PMS_P1;PMS_P2;Temp;Humidity;BMP_temperature;BMP_pressure;BME280_temperature;BME280_humidity;BME280_pressure;Samples;Min_cycle;Max_cycle;Signal;HPM_P1;HPM_P2
2022/05/17 00:01:07;;;;;;;22.83;7.97;;;15.30;99.90;;;;;;5064255;28;20106;-59
2022/05/17 00:03:34;;;;;;;20.75;8.55;;;15.30;99.90;;;;;;5066799;28;20136;-58
2022/05/17 00:06:00;;;;;;;20.15;7.93;;;15.20;99.90;;;;;;5054704;28;20049;-59
2022/05/17 00:08:26;;;;;;;20.80;8.20;;;15.30;99.90;;;;;;5074396;28;20432;-59
2022/05/17 00:10:52;;;;;;;22.25;8.18;;;15.20;99.90;;;;;;5062863;28;20040;-59
2022/05/17 00:13:18;;;;;;;27.92;8.50;;;15.10;99.90;;;;;;5069834;28;20114;-58
2022/05/17 00:15:47;;;;;;;22.60;7.85;;;15.10;99.90;;;;;;5073657;28;20040;-59
2022/05/17 00:18:14;;;;;;;21.25;8.27;;;15.10;99.90;;;;;;5056936;28;20135;-60
2022/05/17 00:20:41;;;;;;;18.13;7.40;;;15.00;99.90;;;;;;5076823;28;20076;-58
2022/05/17 00:23:08;;;;;;;21.92;8.30;;;15.00;99.90;;;;;;5068085;28;20176;-59
2022/05/17 00:25:34;;;;;;;20.80;7.22;;;15.00;99.90;;;;;;5073698;28;20569;-59
2022/05/17 00:28:01;;;;;;;24.20;8.00;;;14.90;99.90;;;;;;5071022;28;20128;-59
2022/05/17 00:30:27;;;;;;;16.95;7.00;;;14.90;99.90;;;;;;5063064;28;20101;-59
2022/05/17 00:32:52;;;;;;;24.25;7.18;;;14.80;99.90;;;;;;5068205;28;20134;-59
2022/05/17 00:35:18;;;;;;;23.00;7.30;;;14.80;99.90;;;;;;5061014;28;20049;-58
2022/05/17 00:37:44;;;;;;;18.20;6.53;;;14.80;99.90;;;;;;5055731;28;20091;-58
2022/05/17 00:40:11;;;;;;;21.38;7.25;;;14.80;99.90;;;;;;5061270;28;20490;-59
2022/05/17 00:42:37;;;;;;;16.00;6.85;;;14.70;99.90;;;;;;5069114;28;20048;-59
2022/05/17 00:45:04;;;;;;;23.02;7.10;;;14.70;99.90;;;;;;5068665;28;20063;-58
2022/05/17 00:47:37;;;;;;;15.23;6.30;;;14.70;99.90;;;;;;5053041;28;20050;-58
2022/05/17 00:50:21;;;;;;;22.33;6.90;;;14.70;99.90;;;;;;5073453;28;20135;-59
2022/05/17 00:52:58;;;;;;;19.15;7.80;;;14.70;99.90;;;;;;5072614;28;20401;-61
2022/05/17 00:55:51;;;;;;;22.63;7.85;;;14.60;99.90;;;;;;5071110;28;20556;-58
2022/05/17 00:58:19;;;;;;;28.23;8.05;;;14.60;99.90;;;;;;5070546;28;20058;-59
2022/05/17 01:01:02;;;;;;;26.90;8.15;;;14.60;99.90;;;;;;5051771;28;20409;-59
2022/05/17 01:03:39;;;;;;;17.23;6.60;;;14.60;99.90;;;;;;5056412;28;20052;-57
2022/05/17 01:06:06;;;;;;;24.60;7.55;;;14.60;99.90;;;;;;5055615;28;20457;-59
2022/05/17 01:08:32;;;;;;;21.55;7.43;;;14.60;99.90;;;;;;5072754;28;20125;-58
2022/05/17 01:10:58;;;;;;;24.00;7.70;;;14.60;99.90;;;;;;5055939;28;20044;-59
2022/05/17 01:16:10;;;;;;;26.92;8.13;;;14.50;99.90;;;;;;5068672;28;20405;-58
2022/05/17 01:18:40;;;;;;;23.08;7.43;;;14.50;99.90;;;;;;5068234;28;20821;-59
2022/05/17 01:21:07;;;;;;;18.88;7.78;;;14.50;99.90;;;;;;5060101;28;20148;-58
2022/05/17 01:23:33;;;;;;;21.90;8.38;;;14.50;99.90;;;;;;5068730;28;20044;-58
2022/05/17 01:25:59;;;;;;;26.33;9.00;;;14.50;99.90;;;;;;5056903;28;20063;-60
2022/05/17 01:28:29;;;;;;;23.45;8.32;;;14.40;99.90;;;;;;5055554;28;20124;-59
2022/05/17 01:31:03;;;;;;;24.98;8.30;;;14.40;99.90;;;;;;5053703;28;20150;-58
2022/05/17 01:33:30;;;;;;;18.60;7.55;;;14.40;99.90;;;;;;5066910;28;20114;-58
2022/05/17 01:35:56;;;;;;;27.33;9.23;;;14.30;99.90;;;;;;5072563;28;20056;-59
2022/05/17 01:38:22;;;;;;;22.63;8.43;;;14.30;99.90;;;;;;5074064;28;20490;-58
2022/05/17 01:40:48;;;;;;;26.77;8.95;;;14.30;99.90;;;;;;5074831;28;20042;-58
2022/05/17 01:43:14;;;;;;;22.20;8.18;;;14.30;99.90;;;;;;5067749;28;20118;-58
2022/05/17 01:45:40;;;;;;;23.05;8.98;;;14.30;99.90;;;;;;5068693;28;20677;-58
2022/05/17 01:48:06;;;;;;;28.10;8.52;;;14.30;99.90;;;;;;5074851;28;20043;-58
2022/05/17 01:50:32;;;;;;;27.55;9.20;;;14.20;99.90;;;;;;5068966;28;20044;-58
2022/05/17 01:52:58;;;;;;;24.48;8.80;;;14.20;99.90;;;;;;5070049;28;20485;-59
2022/05/17 01:55:23;;;;;;;26.42;9.13;;;14.10;99.90;;;;;;5055989;28;20044;-59
2022/05/17 01:57:49;;;;;;;26.00;8.57;;;14.10;99.90;;;;;;5073641;28;20579;-60
2022/05/17 02:00:17;;;;;;;21.70;7.90;;;14.20;99.90;;;;;;5054707;28;20155;-58
2022/05/17 02:02:43;;;;;;;22.75;8.95;;;14.10;99.90;;;;;;5056673;28;20051;-59
2022/05/17 02:05:09;;;;;;;21.80;8.25;;;14.20;99.90;;;;;;5069594;28;20040;-59
2022/05/17 02:07:35;;;;;;;20.33;7.88;;;14.20;99.90;;;;;;5066936;28;20052;-57
2022/05/17 02:10:00;;;;;;;16.50;8.52;;;14.10;99.90;;;;;;5061109;28;20418;-58
2022/05/17 02:12:26;;;;;;;21.83;8.18;;;14.10;99.90;;;;;;5068988;28;20451;-58
2022/05/17 02:14:52;;;;;;;20.88;8.27;;;14.10;99.90;;;;;;5054591;28;20080;-59
2022/05/17 02:17:18;;;;;;;23.50;9.32;;;14.10;99.90;;;;;;5073387;28;20545;-59
2022/05/17 02:19:44;;;;;;;20.02;8.52;;;14.10;99.90;;;;;;5075947;28;20044;-58
2022/05/17 02:22:11;;;;;;;26.17;9.32;;;14.10;99.90;;;;;;5073426;28;20076;-58
2022/05/17 02:24:37;;;;;;;20.58;7.40;;;14.00;99.90;;;;;;5071325;28;20584;-58
2022/05/17 02:27:03;;;;;;;23.48;8.38;;;14.00;99.90;;;;;;5075499;28;20831;-58
2022/05/17 02:29:30;;;;;;;23.02;9.25;;;14.00;99.90;;;;;;5072170;28;20078;-59
2022/05/17 02:31:56;;;;;;;17.45;7.93;;;14.00;99.90;;;;;;5072496;28;20047;-59
2022/05/17 02:34:22;;;;;;;25.35;9.00;;;13.90;99.90;;;;;;5074424;28;20055;-59
2022/05/17 02:36:48;;;;;;;23.13;8.43;;;13.90;99.90;;;;;;5060961;28;20062;-58
2022/05/17 02:39:15;;;;;;;22.88;8.88;;;13.90;99.90;;;;;;5058177;28;20496;-59
2022/05/17 02:41:41;;;;;;;24.95;8.60;;;13.90;99.90;;;;;;5054556;28;20079;-59
2022/05/17 02:44:07;;;;;;;21.85;9.13;;;13.90;99.90;;;;;;5072315;28;20167;-59
2022/05/17 02:46:34;;;;;;;21.48;8.60;;;13.90;99.90;;;;;;5077094;28;20097;-58
2022/05/17 02:49:04;;;;;;;21.05;8.48;;;13.80;99.90;;;;;;5078492;28;20471;-58
2022/05/17 02:51:30;;;;;;;22.27;8.55;;;13.80;99.90;;;;;;5073187;28;20036;-59
2022/05/17 02:53:56;;;;;;;25.42;8.75;;;13.80;99.90;;;;;;5074112;28;20040;-58
2022/05/17 02:56:22;;;;;;;19.25;8.75;;;13.70;99.90;;;;;;5075170;28;20148;-58
2022/05/17 02:58:48;;;;;;;21.98;7.82;;;13.70;99.90;;;;;;5060192;28;20143;-58
2022/05/17 03:01:13;;;;;;;22.85;8.35;;;13.70;99.90;;;;;;5073937;28;20071;-59
2022/05/17 03:03:41;;;;;;;21.58;8.82;;;13.60;99.90;;;;;;5058028;28;20047;-58
2022/05/17 03:06:08;;;;;;;20.90;8.50;;;13.60;99.90;;;;;;5056239;28;20048;-58
2022/05/17 03:08:34;;;;;;;23.98;9.30;;;13.60;99.90;;;;;;5072297;28;20048;-59
2022/05/17 03:11:01;;;;;;;21.63;7.57;;;13.60;99.90;;;;;;5056585;28;20062;-59
2022/05/17 03:13:27;;;;;;;23.00;8.60;;;13.50;99.90;;;;;;5077862;28;20086;-56
2022/05/17 03:15:53;;;;;;;16.02;7.47;;;13.50;99.90;;;;;;5078474;28;20487;-59
2022/05/17 03:18:19;;;;;;;19.60;8.20;;;13.50;99.90;;;;;;5078098;28;20048;-58
2022/05/17 03:20:48;;;;;;;25.58;8.88;;;13.50;99.90;;;;;;5054629;28;22041;-59
2022/05/17 03:23:14;;;;;;;19.05;8.15;;;13.50;99.90;;;;;;5074619;28;20494;-58
2022/05/17 03:25:40;;;;;;;24.63;9.27;;;13.50;99.90;;;;;;5063337;28;20048;-58
2022/05/17 03:28:06;;;;;;;16.58;7.60;;;13.40;99.90;;;;;;5073170;28;20051;-58
2022/05/17 03:30:33;;;;;;;17.30;8.27;;;13.40;99.90;;;;;;5070652;28;20075;-59
2022/05/17 03:32:59;;;;;;;21.25;7.80;;;13.40;99.90;;;;;;5076524;28;20063;-58
2022/05/17 03:35:25;;;;;;;20.02;7.30;;;13.40;99.90;;;;;;5075086;28;20135;-59
2022/05/17 03:37:51;;;;;;;18.85;8.02;;;13.40;99.90;;;;;;5070415;28;20048;-56
2022/05/17 03:40:18;;;;;;;20.10;7.97;;;13.40;99.90;;;;;;5073796;28;20048;-58
2022/05/17 03:42:44;;;;;;;18.95;7.43;;;13.30;99.90;;;;;;5067415;28;20097;-59
2022/05/17 03:45:11;;;;;;;21.58;7.85;;;13.40;99.90;;;;;;5056988;28;20082;-58
2022/05/17 03:47:37;;;;;;;19.67;7.30;;;13.30;99.90;;;;;;5072892;28;20044;-58
2022/05/17 03:50:03;;;;;;;17.23;7.15;;;13.30;99.90;;;;;;5068919;28;20508;-59
2022/05/17 03:52:31;;;;;;;19.67;7.60;;;13.30;99.90;;;;;;5071947;28;20047;-59
2022/05/17 03:54:58;;;;;;;15.77;6.82;;;13.30;99.90;;;;;;5068986;28;20162;-58
2022/05/17 03:57:25;;;;;;;18.25;7.32;;;13.30;99.90;;;;;;5069129;28;20128;-58
2022/05/17 03:59:52;;;;;;;21.05;7.57;;;13.30;99.90;;;;;;5053266;28;20083;-59
2022/05/17 04:02:18;;;;;;;13.77;7.60;;;13.30;99.90;;;;;;5069161;28;20045;-60
2022/05/17 04:04:44;;;;;;;21.45;8.05;;;13.30;99.90;;;;;;5033344;28;20048;-58
2022/05/17 04:07:10;;;;;;;21.20;7.90;;;13.30;99.90;;;;;;5071598;28;20056;-60
2022/05/17 04:09:36;;;;;;;16.05;7.00;;;13.40;99.90;;;;;;5072802;28;20533;-61
2022/05/17 04:12:03;;;;;;;21.45;7.95;;;13.30;99.90;;;;;;5070946;28;20306;-60
2022/05/17 04:14:29;;;;;;;19.70;7.28;;;13.40;99.90;;;;;;5071704;28;20131;-58
2022/05/17 04:16:55;;;;;;;18.73;7.70;;;13.40;99.90;;;;;;5070744;28;20040;-60
2022/05/17 04:19:22;;;;;;;18.13;8.18;;;13.40;99.90;;;;;;5054345;28;20528;-60
2022/05/17 04:21:48;;;;;;;20.73;7.50;;;13.50;99.90;;;;;;5065637;28;20148;-59
2022/05/17 04:24:14;;;;;;;15.07;7.07;;;13.50;99.90;;;;;;5067345;28;20048;-59
2022/05/17 04:26:41;;;;;;;20.10;7.10;;;13.60;99.90;;;;;;5070601;28;20051;-59
2022/05/17 04:29:08;;;;;;;19.83;7.82;;;13.60;99.90;;;;;;5053424;28;20047;-60
2022/05/17 04:31:34;;;;;;;20.58;8.50;;;13.70;99.90;;;;;;5069676;28;20048;-60
2022/05/17 04:34:00;;;;;;;19.63;7.78;;;13.70;99.90;;;;;;5071225;28;20037;-60
2022/05/17 04:36:26;;;;;;;20.75;7.82;;;13.80;99.90;;;;;;5069564;28;20131;-61
2022/05/17 04:38:52;;;;;;;18.38;7.20;;;13.90;99.90;;;;;;5071757;28;20164;-60
2022/05/17 04:41:19;;;;;;;19.48;7.97;;;14.00;99.90;;;;;;5067976;28;20036;-60
2022/05/17 04:43:46;;;;;;;19.95;7.25;;;14.10;99.90;;;;;;5043154;28;20071;-60
2022/05/17 04:46:12;;;;;;;19.88;7.40;;;14.20;99.90;;;;;;5070954;28;20080;-59
2022/05/17 04:48:39;;;;;;;20.02;6.80;;;14.30;99.90;;;;;;5074105;28;20036;-60
2022/05/17 04:51:09;;;;;;;17.80;6.80;;;14.40;99.90;;;;;;5067665;28;20093;-60
2022/05/17 04:53:36;;;;;;;21.23;7.65;;;14.50;99.90;;;;;;5067848;28;20514;-59
2022/05/17 04:56:02;;;;;;;20.98;7.45;;;14.60;99.90;;;;;;5065979;28;20048;-59
2022/05/17 04:58:28;;;;;;;17.25;6.85;;;14.60;99.90;;;;;;5068161;28;20102;-58
2022/05/17 05:00:54;;;;;;;22.33;7.75;;;14.60;99.90;;;;;;5067456;28;20099;-59
2022/05/17 05:03:20;;;;;;;19.88;6.53;;;14.70;99.90;;;;;;5054209;28;20569;-59
2022/05/17 05:05:47;;;;;;;19.95;7.47;;;14.70;99.90;;;;;;5066054;28;20536;-59
2022/05/17 05:08:13;;;;;;;20.38;7.32;;;14.80;99.90;;;;;;5068682;28;20490;-56
2022/05/17 05:10:41;;;;;;;19.35;7.18;;;14.80;99.90;;;;;;5060845;28;20041;-60
2022/05/17 05:13:14;;;;;;;21.77;6.40;;;14.80;99.90;;;;;;5061683;28;20048;-60
2022/05/17 05:15:40;;;;;;;19.55;6.80;;;14.80;99.90;;;;;;5061297;28;20044;-58
2022/05/17 05:18:06;;;;;;;18.98;6.95;;;14.80;99.90;;;;;;5035622;28;20469;-59
2022/05/17 05:20:32;;;;;;;21.45;7.28;;;14.80;99.90;;;;;;5067303;28;20052;-59
2022/05/17 05:22:58;;;;;;;18.98;6.80;;;14.80;99.90;;;;;;5065778;28;20549;-59
2022/05/17 05:25:24;;;;;;;20.35;7.20;;;14.90;99.90;;;;;;5066832;28;20044;-60
2022/05/17 05:27:50;;;;;;;17.92;6.65;;;14.80;99.90;;;;;;5061043;28;20605;-60
2022/05/17 05:30:17;;;;;;;17.10;7.28;;;14.80;99.90;;;;;;5060034;28;20044;-60
2022/05/17 05:32:43;;;;;;;12.95;6.38;;;14.90;99.90;;;;;;5060396;28;20049;-60
2022/05/17 05:35:10;;;;;;;20.38;6.82;;;14.90;99.90;;;;;;5045422;28;20117;-58
2022/05/17 05:37:37;;;;;;;18.40;7.47;;;14.90;99.90;;;;;;5054269;28;20040;-59
2022/05/17 05:40:03;;;;;;;19.10;7.28;;;14.90;99.90;;;;;;5055387;28;20511;-61
2022/05/17 05:42:29;;;;;;;16.20;7.00;;;14.90;99.90;;;;;;5058140;28;20499;-59
2022/05/17 05:44:55;;;;;;;21.15;6.47;;;14.90;99.90;;;;;;5059476;28;20797;-60
2022/05/17 05:47:21;;;;;;;15.80;6.30;;;15.00;99.90;;;;;;5063472;28;20047;-60
2022/05/17 05:49:47;;;;;;;17.95;6.30;;;15.00;99.90;;;;;;5044033;28;20054;-60
2022/05/17 05:52:13;;;;;;;19.95;7.95;;;15.10;99.90;;;;;;5064291;28;20044;-59
2022/05/17 05:54:38;;;;;;;24.13;7.45;;;15.10;99.90;;;;;;5058717;28;20036;-59
2022/05/17 05:57:05;;;;;;;23.52;7.25;;;15.20;99.90;;;;;;5063227;28;20352;-60
2022/05/17 05:59:31;;;;;;;19.23;6.95;;;15.30;99.90;;;;;;5054210;28;20048;-59
2022/05/17 06:01:58;;;;;;;16.30;6.45;;;15.30;99.90;;;;;;5063129;28;20040;-60
2022/05/17 06:04:27;;;;;;;19.33;6.72;;;15.40;99.90;;;;;;5057625;28;20044;-60
2022/05/17 06:06:54;;;;;;;15.27;6.30;;;15.40;99.90;;;;;;5048988;28;20102;-60
2022/05/17 06:09:20;;;;;;;18.85;6.70;;;15.50;99.90;;;;;;5065882;28;20044;-60
2022/05/17 06:11:46;;;;;;;25.10;7.80;;;15.50;99.90;;;;;;5063636;28;20054;-59
2022/05/17 06:14:12;;;;;;;17.38;6.88;;;15.50;99.90;;;;;;5034794;28;20099;-60
2022/05/17 06:16:38;;;;;;;17.33;6.93;;;15.60;99.90;;;;;;5054811;28;20050;-60
2022/05/17 06:19:04;;;;;;;18.75;6.30;;;15.60;99.90;;;;;;5057059;28;20138;-59
2022/05/17 06:21:29;;;;;;;16.95;6.20;;;15.70;99.90;;;;;;5060935;28;20054;-61
2022/05/17 06:23:55;;;;;;;26.65;6.88;;;15.80;99.90;;;;;;5065775;28;20044;-61
2022/05/17 06:26:21;;;;;;;21.20;6.93;;;15.90;99.90;;;;;;5063734;28;20047;-62
2022/05/17 06:28:47;;;;;;;22.05;6.70;;;16.00;99.90;;;;;;5047993;28;20543;-61
2022/05/17 06:31:13;;;;;;;22.88;6.82;;;16.00;99.90;;;;;;5066489;28;20478;-62
2022/05/17 06:33:39;;;;;;;17.88;6.22;;;16.10;99.90;;;;;;5043056;28;20159;-62
2022/05/17 06:36:05;;;;;;;16.25;6.45;;;16.20;99.90;;;;;;5049263;28;20056;-62
2022/05/17 06:38:31;;;;;;;13.13;6.18;;;16.30;99.90;;;;;;5071040;28;20130;-60
2022/05/17 06:40:57;;;;;;;18.33;5.95;;;16.40;99.90;;;;;;5056735;28;20464;-62
2022/05/17 06:43:23;;;;;;;16.15;5.45;;;16.50;99.90;;;;;;5059628;28;20044;-62
2022/05/17 06:45:49;;;;;;;17.95;6.40;;;16.50;99.90;;;;;;5059141;28;20080;-61
2022/05/17 06:48:15;;;;;;;18.45;6.03;;;16.50;99.90;;;;;;5048306;28;20854;-61
2022/05/17 06:50:41;;;;;;;19.33;6.68;;;16.60;99.90;;;;;;5068144;28;20056;-62
2022/05/17 06:53:08;;;;;;;14.30;5.97;;;16.70;99.90;;;;;;5071390;28;20044;-62
2022/05/17 06:55:34;;;;;;;22.20;5.32;;;16.70;99.90;;;;;;5070673;28;20048;-61
2022/05/17 06:58:02;;;;;;;19.02;6.18;;;16.70;99.90;;;;;;5033700;28;20048;-60
2022/05/17 07:00:28;;;;;;;17.40;5.72;;;16.80;99.90;;;;;;5050751;28;20326;-61
2022/05/17 07:02:54;;;;;;;18.05;5.82;;;16.90;99.90;;;;;;5040208;28;20040;-61
2022/05/17 07:05:20;;;;;;;19.83;6.22;;;17.00;99.90;;;;;;5044804;28;20048;-62
2022/05/17 07:07:46;;;;;;;12.48;5.40;;;17.10;99.90;;;;;;5051126;28;20058;-62
2022/05/17 07:13:09;;;;;;;18.70;5.85;;;17.20;99.90;;;;;;5063925;28;20066;-61
2022/05/17 07:15:47;;;;;;;16.63;5.93;;;17.40;99.90;;;;;;5047934;28;20049;-62
2022/05/17 07:18:15;;;;;;;18.08;5.60;;;17.40;99.90;;;;;;5061509;28;20174;-61
2022/05/17 07:20:41;;;;;;;18.70;5.90;;;17.50;99.90;;;;;;5061995;28;20081;-61
2022/05/17 07:23:07;;;;;;;17.85;6.25;;;17.60;99.90;;;;;;5056530;28;20562;-61
2022/05/17 07:25:34;;;;;;;14.27;5.60;;;17.70;99.90;;;;;;5041515;28;20044;-62
2022/05/17 07:28:00;;;;;;;19.98;5.97;;;17.80;99.90;;;;;;5060333;28;20047;-61
2022/05/17 07:30:27;;;;;;;17.70;5.95;;;17.90;99.90;;;;;;5062184;28;20062;-61
2022/05/17 07:32:53;;;;;;;21.30;6.35;;;18.00;99.90;;;;;;5026698;28;20077;-61
2022/05/17 07:35:19;;;;;;;18.17;5.97;;;18.10;99.90;;;;;;5054498;28;20063;-61
2022/05/17 07:37:45;;;;;;;16.55;6.13;;;18.20;99.90;;;;;;5037837;28;20052;-60
2022/05/17 07:40:15;;;;;;;16.73;5.88;;;18.30;99.90;;;;;;5037944;28;20507;-62
2022/05/17 07:42:41;;;;;;;17.33;5.63;;;18.30;99.90;;;;;;5053563;28;20079;-62
2022/05/17 07:45:09;;;;;;;14.00;5.32;;;18.40;99.90;;;;;;5054127;28;20049;-60
2022/05/17 07:47:34;;;;;;;16.17;5.22;;;18.50;99.90;;;;;;5034897;28;20051;-61
2022/05/17 07:50:00;;;;;;;15.82;5.50;;;18.50;99.90;;;;;;5053930;28;20052;-61
2022/05/17 07:52:27;;;;;;;15.43;5.00;;;18.60;99.90;;;;;;5025826;28;20063;-61
2022/05/17 07:54:52;;;;;;;16.70;5.07;;;18.70;99.90;;;;;;5062793;28;20178;-60
2022/05/17 07:57:19;;;;;;;18.60;5.60;;;18.80;99.90;;;;;;5038116;28;20055;-60
2022/05/17 07:59:45;;;;;;;15.70;4.80;;;18.80;99.90;;;;;;5058442;28;20170;-62
2022/05/17 08:02:12;;;;;;;13.38;5.05;;;18.90;99.90;;;;;;5043119;28;20048;-59
2022/05/17 08:04:38;;;;;;;17.42;5.00;;;19.00;99.90;;;;;;5056274;28;20706;-61
2022/05/17 08:07:04;;;;;;;16.27;6.07;;;19.10;99.90;;;;;;5060124;28;20394;-61
2022/05/17 08:09:30;;;;;;;19.95;6.43;;;19.30;99.90;;;;;;5059820;28;20119;-61
2022/05/17 08:11:56;;;;;;;16.23;5.70;;;19.30;99.90;;;;;;5039896;28;20044;-60
2022/05/17 08:14:22;;;;;;;13.75;5.20;;;19.40;99.90;;;;;;5055516;28;21725;-60
2022/05/17 08:16:48;;;;;;;14.13;5.47;;;19.40;99.90;;;;;;5035722;28;20445;-59
2022/05/17 08:19:15;;;;;;;21.75;6.20;;;19.40;99.90;;;;;;5060058;28;20088;-61
2022/05/17 08:21:41;;;;;;;17.40;5.72;;;19.40;99.90;;;;;;5057622;28;20105;-60
2022/05/17 08:24:08;;;;;;;18.95;6.40;;;19.50;99.90;;;;;;5055553;28;20054;-60
2022/05/17 08:29:18;;;;;;;13.68;5.45;;;19.70;99.90;;;;;;5056945;28;20051;-61
2022/05/17 08:33:14;;;;;;;17.65;6.05;;;19.90;99.90;;;;;;5053054;28;20553;-61
2022/05/17 08:34:30;;;;;;;19.70;6.13;;;20.00;99.90;;;;;;5047838;28;20075;-61
2022/05/17 08:36:56;;;;;;;17.45;6.00;;;20.00;99.90;;;;;;5064535;28;20084;-61
2022/05/17 08:39:21;;;;;;;16.15;5.75;;;20.10;99.90;;;;;;5059312;28;20066;-60
2022/05/17 08:41:52;;;;;;;17.92;6.15;;;20.20;99.90;;;;;;5063260;28;20529;-61
2022/05/17 08:44:34;;;;;;;13.65;5.65;;;20.30;99.90;;;;;;5055659;28;20052;-60
2022/05/17 08:47:11;;;;;;;16.88;5.90;;;20.50;99.90;;;;;;5053081;28;20760;-61
2022/05/17 08:49:43;;;;;;;18.65;5.75;;;20.70;99.90;;;;;;5037383;28;20657;-59
2022/05/17 08:52:21;;;;;;;15.23;5.30;;;20.80;99.90;;;;;;5052107;28;20129;-61
2022/05/17 08:54:56;;;;;;;15.68;5.55;;;20.70;99.90;;;;;;5040531;28;20043;-61
2022/05/17 08:57:32;;;;;;;19.42;6.07;;;20.70;99.90;;;;;;5041507;28;20139;-61
2022/05/17 09:00:14;;;;;;;14.32;4.97;;;20.80;99.90;;;;;;5062361;28;20040;-60
2022/05/17 09:02:50;;;;;;;14.05;5.55;;;21.00;99.90;;;;;;5060794;28;20098;-61
2022/05/17 09:05:15;;;;;;;14.05;5.50;;;21.10;99.90;;;;;;5042115;28;20059;-61
2022/05/17 09:08:04;;;;;;;14.95;5.20;;;21.30;99.90;;;;;;5043574;28;20044;-61
2022/05/17 09:10:39;;;;;;;16.85;5.18;;;21.40;99.90;;;;;;5053125;28;20055;-61
2022/05/17 09:13:25;;;;;;;12.82;4.75;;;21.40;99.90;;;;;;5055980;28;20486;-60
2022/05/17 09:15:55;;;;;;;15.02;4.85;;;21.60;99.90;;;;;;5055549;28;20080;-61
2022/05/17 09:18:23;;;;;;;14.05;5.10;;;21.70;99.90;;;;;;5053774;28;21048;-60
2022/05/17 09:20:49;;;;;;;12.23;4.40;;;21.80;99.90;;;;;;5045010;28;20112;-61
2022/05/17 09:23:15;;;;;;;14.90;4.70;;;22.00;99.90;;;;;;5061870;28;20147;-61
2022/05/17 09:25:56;;;;;;;14.68;4.40;;;22.10;99.90;;;;;;5037596;28;20062;-61
2022/05/17 09:28:29;;;;;;;15.93;4.22;;;22.20;99.50;;;;;;5038380;28;20500;-61
2022/05/17 09:31:13;;;;;;;13.48;3.90;;;22.30;99.10;;;;;;5058460;28;20035;-61
2022/05/17 09:33:41;;;;;;;9.60;3.15;;;22.50;98.50;;;;;;5058509;28;20052;-60
2022/05/17 09:36:13;;;;;;;12.75;3.80;;;22.60;98.20;;;;;;5036210;28;20189;-61
2022/05/17 09:38:39;;;;;;;13.57;3.22;;;22.70;97.80;;;;;;5039510;28;20048;-61
2022/05/17 09:41:11;;;;;;;10.18;3.75;;;22.80;97.60;;;;;;5059156;28;20052;-60
2022/05/17 09:43:39;;;;;;;10.52;3.58;;;22.90;96.90;;;;;;5044719;28;20358;-61
2022/05/17 09:46:11;;;;;;;10.35;4.00;;;23.00;96.50;;;;;;5040293;28;20059;-61
2022/05/17 09:54:46;;;;;;;11.37;3.63;;;23.30;95.70;;;;;;5056382;28;20125;-61
2022/05/17 09:57:22;;;;;;;12.65;3.40;;;23.40;95.50;;;;;;5056656;28;20043;-61
2022/05/17 09:59:52;;;;;;;14.90;3.55;;;23.40;94.30;;;;;;5056564;28;20060;-61
2022/05/17 10:02:32;;;;;;;13.45;4.00;;;23.50;93.40;;;;;;5055812;28;20725;-61
2022/05/17 10:05:21;;;;;;;10.50;3.10;;;23.60;93.80;;;;;;5058697;28;20406;-61
2022/05/17 10:07:54;;;;;;;7.05;2.72;;;23.70;93.50;;;;;;5040152;28;20470;-61
2022/05/17 10:10:37;;;;;;;10.77;3.00;;;23.80;92.80;;;;;;5056099;28;20046;-60
2022/05/17 10:13:20;;;;;;;11.68;3.28;;;23.80;91.30;;;;;;5055869;28;20116;-61
2022/05/17 10:15:51;;;;;;;12.25;3.42;;;23.80;88.70;;;;;;5053468;28;20059;-60
2022/05/17 10:18:30;;;;;;;12.65;3.15;;;23.70;89.20;;;;;;5035157;28;20107;-62
2022/05/17 10:21:16;;;;;;;9.68;3.25;;;23.50;88.40;;;;;;5059799;28;20086;-62
2022/05/17 10:24:17;;;;;;;12.10;3.20;;;23.50;87.50;;;;;;5056242;28;20110;-61
2022/05/17 10:26:48;;;;;;;13.48;3.95;;;23.60;88.40;;;;;;5058215;28;20039;-61
2022/05/17 10:29:40;;;;;;;10.23;2.95;;;23.70;87.60;;;;;;5047160;28;20044;-61
2022/05/17 10:32:34;;;;;;;14.35;3.28;;;23.80;86.90;;;;;;5068815;28;20126;-62
2022/05/17 10:35:28;;;;;;;10.23;3.60;;;24.10;86.90;;;;;;5024503;28;20075;-61
2022/05/17 10:37:59;;;;;;;13.13;3.35;;;24.40;84.60;;;;;;5067486;28;20047;-61
2022/05/17 10:40:32;;;;;;;8.30;2.90;;;24.60;85.30;;;;;;5066816;28;20577;-61
2022/05/17 10:42:59;;;;;;;;;;;24.80;82.70;;;;;;5058175;28;20135;-61
2022/05/17 10:45:33;;;;;;;10.75;3.15;;;25.00;83.60;;;;;;5065776;28;19925;-61
2022/05/17 10:48:11;;;;;;;8.90;3.42;;;25.00;79.40;;;;;;5065103;28;20043;-61
2022/05/17 10:50:45;;;;;;;10.25;3.17;;;25.10;77.30;;;;;;5039176;28;20086;-61
2022/05/17 10:53:25;;;;;;;8.25;2.22;;;25.10;79.20;;;;;;5062096;28;20085;-60
2022/05/17 10:56:12;;;;;;;8.65;2.35;;;25.30;75.00;;;;;;5060701;28;20445;-61
2022/05/17 10:58:57;;;;;;;7.93;2.42;;;25.50;73.00;;;;;;5061549;28;22820;-61
2022/05/17 11:01:31;;;;;;;11.25;2.78;;;25.60;71.40;;;;;;5057237;28;20141;-61
2022/05/17 11:04:06;;;;;;;10.25;2.50;;;25.70;69.80;;;;;;5056333;28;20044;-61
2022/05/17 11:06:52;;;;;;;8.75;2.50;;;25.90;71.60;;;;;;5062430;28;20048;-61
2022/05/17 11:09:18;;;;;;;5.97;2.30;;;26.10;69.80;;;;;;5058284;28;20075;-61
2022/05/17 11:11:57;;;;;;;8.18;2.60;;;26.20;69.00;;;;;;5058320;28;20144;-61
2022/05/17 11:14:33;;;;;;;11.32;3.10;;;26.30;69.20;;;;;;5055469;28;20580;-61
2022/05/17 11:17:27;;;;;;;9.75;2.85;;;26.40;70.70;;;;;;5060088;28;20052;-61
2022/05/17 11:20:19;;;;;;;12.38;2.90;;;26.60;68.40;;;;;;5059827;28;20052;-61
2022/05/17 11:22:56;;;;;;;13.27;2.95;;;26.80;67.70;;;;;;5020656;28;20514;-61
2022/05/17 11:25:47;;;;;;;10.18;2.75;;;26.90;66.10;;;;;;5061161;28;20802;-62
2022/05/17 11:28:40;;;;;;;9.65;2.25;;;26.90;64.40;;;;;;5063319;28;20043;-62
2022/05/17 11:31:50;;;;;;;8.85;2.50;;;26.90;63.20;;;;;;5060861;28;20502;-61
2022/05/17 11:34:26;;;;;;;7.90;2.45;;;27.00;64.20;;;;;;4946572;28;20060;-61
2022/05/17 11:36:58;;;;;;;9.30;2.40;;;27.20;63.60;;;;;;5042975;28;20340;-61
2022/05/17 11:39:39;;;;;;;10.32;2.85;;;27.40;62.80;;;;;;5057017;28;20047;-62
2022/05/17 11:42:12;;;;;;;9.38;2.72;;;27.50;63.40;;;;;;5060115;28;20066;-62
2022/05/17 11:44:44;;;;;;;8.48;2.40;;;27.60;62.70;;;;;;5058109;28;20052;-61
2022/05/17 11:47:33;;;;;;;7.75;1.83;;;27.70;62.50;;;;;;5062553;28;20055;-62
2022/05/17 11:50:42;;;;;;;5.25;1.90;;;27.80;61.90;;;;;;5058299;28;23302;-61
2022/05/17 11:53:23;;;;;;;7.20;1.83;;;28.00;59.80;;;;;;5061837;28;20054;-61
2022/05/17 11:56:14;;;;;;;4.57;1.73;;;28.10;60.40;;;;;;5054824;28;20059;-60
2022/05/17 11:58:43;;;;;;;8.15;2.05;;;28.30;59.60;;;;;;5026030;28;20056;-62
2022/05/17 12:01:30;;;;;;;8.13;1.77;;;28.40;57.50;;;;;;5059791;28;20055;-61
2022/05/17 12:04:20;;;;;;;10.68;2.40;;;28.40;54.30;;;;;;5036895;28;20490;-62
2022/05/17 12:06:49;;;;;;;8.98;1.90;;;28.40;57.10;;;;;;5064945;28;20517;-62
2022/05/17 12:09:31;;;;;;;11.40;2.58;;;28.60;56.00;;;;;;5036923;28;20076;-62
2022/05/17 12:12:03;;;;;;;10.68;2.13;;;28.70;55.50;;;;;;5058863;28;20044;-61
2022/05/17 12:15:03;;;;;;;5.00;1.77;;;28.80;55.30;;;;;;5052430;28;20048;-60
2022/05/17 12:17:45;;;;;;;8.35;2.20;;;28.90;55.20;;;;;;5035456;28;20044;-61
2022/05/17 12:20:21;;;;;;;8.38;2.00;;;29.00;55.20;;;;;;5061133;28;20044;-61
2022/05/17 12:23:15;;;;;;;10.40;2.00;;;29.20;54.90;;;;;;5060542;28;20132;-62
2022/05/17 12:26:29;;;;;;;7.82;1.83;;;29.40;53.50;;;;;;5064027;28;20059;-61
2022/05/17 12:28:56;;;;;;;9.85;2.10;;;29.40;53.00;;;;;;5008712;28;20045;-61
2022/05/17 12:31:28;;;;;;;6.00;1.92;;;29.40;54.50;;;;;;5059241;28;20035;-61
2022/05/17 12:33:56;;;;;;;8.52;2.35;;;29.50;54.90;;;;;;5053440;28;20033;-60
2022/05/17 12:36:23;;;;;;;7.95;2.10;;;29.70;54.60;;;;;;5059769;28;21348;-61
2022/05/17 12:44:47;;;;;;;5.47;1.60;;;30.00;52.40;;;;;;5055481;28;20182;-62
2022/05/17 12:47:20;;;;;;;7.10;2.17;;;30.00;53.00;;;;;;5056806;28;20040;-62
2022/05/17 12:49:54;;;;;;;7.03;1.65;;;29.90;51.40;;;;;;5057127;28;20174;-60
2022/05/17 12:52:32;;;;;;;7.45;2.20;;;29.90;51.10;;;;;;5021795;28;20098;-62
2022/05/17 12:55:17;;;;;;;10.02;2.28;;;29.90;51.80;;;;;;5039338;28;20055;-61
2022/05/17 12:57:43;;;;;;;8.30;1.83;;;29.90;51.60;;;;;;5055263;28;20087;-62
2022/05/17 13:00:24;;;;;;;8.75;2.20;;;29.90;51.70;;;;;;5057823;28;20139;-62
2022/05/17 13:03:03;;;;;;;5.82;1.60;;;29.90;51.50;;;;;;5058472;28;20679;-62
2022/05/17 13:05:32;;;;;;;7.72;1.95;;;30.00;51.80;;;;;;5058300;28;20425;-62
2022/05/17 13:08:28;;;;;;;9.15;2.08;;;30.00;51.30;;;;;;5057056;28;20051;-62
2022/05/17 13:11:04;;;;;;;7.18;1.67;;;30.20;51.00;;;;;;5054814;28;20055;-61
2022/05/17 13:13:32;;;;;;;6.43;1.73;;;30.40;50.40;;;;;;5042316;28;20044;-61
2022/05/17 13:16:04;;;;;;;5.53;1.52;;;30.50;50.20;;;;;;5034650;28;20073;-62